Time;durP1;ratioP1;P1;durP2;ratioP2;P2;SDS_P1;SDS_P2;PMS_P1;PMS_P2;Temp;Humidity;BMP_temperature;BMP_pressure;BME280_temperature;BME280_humidity;BME280_pressure;Samples;Min_cycle;Max_cycle;Signal;HPM_P1;HPM_P2
2022/01/17 00:01:37;;;;;;;29.73;18.73;;;13.30;96.20;;;13.52;48.35;102577.81;4883498;28;97166;-51
2022/01/17 00:04:04;;;;;;;36.97;23.63;;;13.40;96.40;;;13.43;48.59;102573.53;4906251;28;97266;-52
2022/01/17 00:06:29;;;;;;;43.83;26.50;;;13.40;96.30;;;13.57;46.98;102575.94;4892376;28;96844;-49
2022/01/17 00:08:55;;;;;;;41.63;25.90;;;13.50;95.50;;;13.52;48.09;102578.69;4889605;28;99499;-46
2022/01/17 00:11:21;;;;;;;29.97;19.87;;;13.40;95.90;;;13.59;48.25;102568.81;4902921;28;104552;-50
2022/01/17 00:13:48;;;;;;;36.83;24.87;;;13.50;96.10;;;13.30;48.80;102570.19;4892609;28;99891;-45
2022/01/17 00:16:32;;;;;;;35.87;23.20;;;13.40;96.00;;;13.37;47.40;102573.63;4895392;28;96942;-47
2022/01/17 00:21:41;;;;;;;35.43;23.27;;;13.20;96.20;;;13.15;49.03;102583.66;4889980;28;97476;-48
2022/01/17 00:24:08;;;;;;;38.30;24.27;;;13.10;96.50;;;13.16;48.92;102590.72;4890771;28;97494;-49
2022/01/17 00:26:34;;;;;;;41.63;26.40;;;13.10;96.80;;;12.80;50.08;102598.34;4903837;28;97158;-54
2022/01/17 00:29:00;;;;;;;36.40;22.97;;;12.70;97.30;;;12.65;50.51;102603.84;4888112;28;106265;-50
2022/01/17 00:31:26;;;;;;;34.13;22.40;;;12.60;97.40;;;12.51;51.16;102611.09;4888527;28;117920;-49
2022/01/17 00:33:51;;;;;;;37.67;22.67;;;12.50;97.70;;;12.60;50.82;102620.69;4903840;28;97862;-47
2022/01/17 00:36:17;;;;;;;36.97;23.03;;;12.50;97.50;;;12.52;51.04;102618.13;4893672;28;107213;-52
2022/01/17 00:38:43;;;;;;;35.00;22.37;;;12.40;98.00;;;12.42;50.83;102627.94;4889137;28;102556;-52
2022/01/17 00:41:09;;;;;;;32.43;21.73;;;12.30;98.00;;;12.41;51.59;102630.63;4902664;28;97373;-46
2022/01/17 00:43:35;;;;;;;34.93;22.27;;;12.20;98.50;;;12.42;51.34;102633.25;4880645;28;97267;-51
2022/01/17 00:46:01;;;;;;;33.30;22.23;;;12.30;98.20;;;12.39;51.10;102650.94;4891472;28;96749;-44
2022/01/17 00:48:27;;;;;;;30.93;21.27;;;12.30;97.80;;;12.38;51.53;102651.84;4883956;28;97750;-47
2022/01/17 00:50:53;;;;;;;35.37;22.17;;;12.10;99.00;;;12.49;50.97;102660.53;4893407;28;97468;-50
2022/01/17 00:53:18;;;;;;;34.53;22.13;;;12.30;98.20;;;12.56;50.98;102662.19;4878287;28;114952;-51
2022/01/17 00:55:44;;;;;;;31.67;20.97;;;12.30;98.60;;;12.67;50.81;102649.72;4887182;28;98513;-50
2022/01/17 00:58:10;;;;;;;33.07;21.33;;;12.30;98.70;;;12.50;51.46;102636.69;4885934;28;99860;-47
2022/01/17 01:00:37;;;;;;;29.60;19.70;;;12.30;98.60;;;12.72;50.96;102645.22;4891043;28;99567;-46
2022/01/17 01:03:03;;;;;;;34.57;22.03;;;12.50;98.30;;;12.76;50.74;102643.44;4886902;28;97095;-44
2022/01/17 01:05:29;;;;;;;31.77;20.67;;;12.60;98.00;;;12.83;50.19;102629.19;4885078;28;97285;-47
2022/01/17 01:07:55;;;;;;;32.17;20.77;;;12.60;97.60;;;13.05;49.83;102620.06;4887145;28;98172;-44
2022/01/17 01:10:22;;;;;;;31.77;20.50;;;12.90;97.10;;;13.14;49.68;102615.50;4891821;28;96936;-49
2022/01/17 01:12:50;;;;;;;30.27;20.40;;;13.00;97.40;;;13.32;49.24;102621.44;4904188;28;98677;-46
2022/01/17 01:15:34;;;;;;;31.40;20.23;;;13.20;97.10;;;13.44;48.66;102627.41;4893623;28;97610;-47
2022/01/17 01:18:12;;;;;;;31.83;21.00;;;13.30;97.10;;;13.48;48.56;102637.09;4885355;28;102423;-50
2022/01/17 01:28:33;;;;;;;33.40;22.27;;;13.30;96.90;;;13.49;48.69;102662.72;4885780;28;97398;-45
2022/01/17 01:31:02;;;;;;;33.43;21.97;;;13.10;97.40;;;13.50;48.55;102670.63;4888583;28;97149;-52
2022/01/17 01:33:33;;;;;;;32.17;22.07;;;13.20;97.10;;;13.49;48.46;102660.06;4880878;28;98035;-44
2022/01/17 01:36:07;;;;;;;30.17;20.50;;;13.20;97.00;;;13.56;48.67;102649.31;4892004;28;97305;-44
2022/01/17 01:38:35;;;;;;;32.03;20.97;;;13.30;97.20;;;13.54;48.75;102650.25;4888479;28;98161;-48
2022/01/17 01:41:01;;;;;;;37.80;22.57;;;13.30;96.90;;;13.49;48.83;102646.81;4887916;28;98171;-52
2022/01/17 01:43:27;;;;;;;30.80;20.43;;;13.30;96.90;;;13.36;48.71;102641.69;4882603;28;97493;-47
2022/01/17 01:45:58;;;;;;;34.60;21.73;;;13.20;97.10;;;13.42;48.56;102634.53;4886385;28;101194;-43
2022/01/17 01:48:24;;;;;;;29.97;19.60;;;13.20;96.50;;;13.44;48.74;102632.72;4881760;28;102750;-46
2022/01/17 01:50:50;;;;;;;34.67;22.50;;;13.20;96.70;;;13.39;48.87;102636.34;4887268;28;97494;-52
2022/01/17 01:53:15;;;;;;;36.10;22.07;;;13.10;97.40;;;13.38;48.85;102629.28;4887653;28;97529;-45
2022/01/17 01:55:41;;;;;;;36.43;23.30;;;13.10;97.40;;;13.23;49.55;102637.47;4885715;28;98917;-50
2022/01/17 01:58:09;;;;;;;37.50;23.00;;;12.80;98.10;;;13.34;49.01;102643.50;4887447;28;97426;-46
2022/01/17 02:00:35;;;;;;;26.60;18.57;;;13.00;97.60;;;13.48;48.90;102650.34;4889116;28;97871;-47
2022/01/17 02:03:01;;;;;;;29.87;20.40;;;13.20;97.00;;;13.61;48.45;102662.50;4884792;28;97161;-49
2022/01/17 02:05:27;;;;;;;31.03;20.30;;;13.40;96.70;;;13.64;48.24;102657.16;4881658;28;97432;-51
2022/01/17 02:07:53;;;;;;;36.27;24.23;;;13.40;96.70;;;13.61;48.59;102678.44;4886200;28;98095;-45
2022/01/17 02:10:19;;;;;;;38.47;24.37;;;13.40;96.50;;;13.62;48.34;102690.78;4882862;28;97004;-49
2022/01/17 02:12:45;;;;;;;38.30;24.17;;;13.40;96.70;;;13.67;48.39;102683.63;4889683;28;98708;-46
2022/01/17 02:15:14;;;;;;;38.93;25.17;;;13.50;96.60;;;13.73;48.11;102669.38;4884653;28;98079;-49
2022/01/17 02:17:48;;;;;;;37.67;24.43;;;13.60;96.30;;;13.78;48.08;102654.25;4904175;28;98381;-46
2022/01/17 02:20:17;;;;;;;35.97;23.80;;;13.70;96.20;;;13.88;47.63;102647.88;4905170;28;97142;-45
2022/01/17 02:22:43;;;;;;;38.67;24.03;;;13.80;95.70;;;13.92;47.48;102645.16;4910735;28;101394;-48
2022/01/17 02:25:09;;;;;;;33.33;21.97;;;13.90;95.80;;;13.89;47.74;102642.56;4915520;28;97106;-44
2022/01/17 02:27:36;;;;;;;36.30;24.60;;;13.80;95.90;;;14.00;47.58;102645.88;4911356;28;99293;-43
2022/01/17 02:30:02;;;;;;;35.90;24.47;;;14.00;95.60;;;14.08;47.36;102639.56;4910738;28;99188;-45
2022/01/17 02:32:28;;;;;;;35.17;24.30;;;14.10;95.40;;;14.06;47.40;102652.00;4919271;28;97024;-45
2022/01/17 02:35:22;;;;;;;37.73;25.20;;;14.00;95.50;;;14.10;47.27;102654.56;4930783;28;123557;-48
2022/01/17 02:37:48;;;;;;;34.53;23.63;;;14.00;95.40;;;14.16;47.13;102641.16;4906808;28;104084;-46
2022/01/17 02:40:16;;;;;;;36.13;24.20;;;14.10;95.50;;;14.20;46.92;102645.53;4910348;28;99376;-44
2022/01/17 02:42:45;;;;;;;37.47;23.90;;;14.10;95.40;;;14.20;46.96;102642.88;4906855;28;96801;-44
2022/01/17 02:45:35;;;;;;;39.10;25.67;;;14.10;95.40;;;14.17;47.13;102647.34;4930399;28;97546;-44
2022/01/17 02:48:09;;;;;;;38.73;24.70;;;14.10;95.60;;;14.05;47.27;102634.31;4912997;28;104126;-45
2022/01/17 02:50:36;;;;;;;34.57;23.00;;;14.00;95.60;;;14.06;47.26;102628.09;4903534;28;97526;-45
2022/01/17 02:53:08;;;;;;;35.10;24.47;;;13.90;95.70;;;14.12;47.20;102628.84;4921053;28;97288;-47
2022/01/17 02:55:35;;;;;;;37.20;23.70;;;14.00;95.80;;;14.19;46.93;102640.25;4914535;28;96826;-45
2022/01/17 02:58:01;;;;;;;39.97;26.07;;;14.10;95.40;;;14.16;47.11;102648.25;4942019;28;97327;-46
2022/01/17 03:00:27;;;;;;;40.47;26.57;;;14.10;95.20;;;14.19;46.92;102646.44;4915482;28;97396;-43
2022/01/17 03:02:54;;;;;;;33.57;22.33;;;14.10;95.50;;;14.20;47.04;102652.59;4916445;28;97099;-45
2022/01/17 03:05:20;;;;;;;40.63;26.90;;;14.10;95.40;;;14.14;47.10;102639.44;4912154;28;96955;-46
2022/01/17 03:07:48;;;;;;;41.07;25.73;;;14.00;95.50;;;13.83;47.92;102624.09;4916657;28;98732;-47
2022/01/17 03:10:32;;;;;;;42.00;28.47;;;13.70;96.10;;;13.98;46.56;102623.81;4915018;28;97035;-48
2022/01/17 03:13:08;;;;;;;43.37;27.83;;;14.00;95.10;;;14.02;47.39;102626.41;4915075;28;98143;-48
2022/01/17 03:15:35;;;;;;;40.27;25.87;;;14.00;95.50;;;14.07;47.51;102619.25;4915495;28;97241;-44
2022/01/17 03:18:02;;;;;;;43.23;26.43;;;14.00;95.60;;;14.00;47.75;102626.44;4938727;28;97255;-48
2022/01/17 03:20:29;;;;;;;40.53;28.07;;;14.00;95.60;;;14.11;47.41;102628.88;4915815;28;96939;-48
2022/01/17 03:22:55;;;;;;;37.73;26.27;;;14.10;95.60;;;14.20;47.05;102626.06;4913908;28;96737;-47
2022/01/17 03:25:21;;;;;;;41.20;25.67;;;14.20;95.10;;;14.26;47.03;102625.94;4928742;28;96932;-50
2022/01/17 03:27:47;;;;;;;42.67;27.40;;;14.20;95.40;;;14.19;47.04;102619.00;4916116;28;97346;-45
2022/01/17 03:30:13;;;;;;;35.70;23.77;;;14.10;95.30;;;14.29;46.98;102623.22;4916894;28;102063;-44
2022/01/17 03:32:39;;;;;;;39.20;26.00;;;14.20;95.40;;;14.20;47.03;102636.69;4912782;28;97516;-49
2022/01/17 03:35:05;;;;;;;40.43;26.80;;;14.20;94.90;;;14.15;47.30;102634.09;4915177;28;97294;-46
2022/01/17 03:37:31;;;;;;;42.63;27.83;;;14.10;95.20;;;14.21;46.98;102633.13;4907578;28;97262;-47
2022/01/17 03:39:57;;;;;;;44.07;27.77;;;14.20;95.40;;;14.12;46.30;102627.97;4926662;28;97145;-44
2022/01/17 03:42:24;;;;;;;39.83;26.47;;;14.10;94.80;;;13.99;47.80;102641.47;4911748;28;97426;-44
2022/01/17 03:44:50;;;;;;;42.70;27.17;;;13.90;95.90;;;14.04;47.50;102636.09;4919386;28;96981;-44
2022/01/17 03:47:17;;;;;;;38.13;25.40;;;13.90;95.70;;;14.19;47.34;102640.25;4915673;28;99468;-44
2022/01/17 03:49:43;;;;;;;42.70;27.67;;;14.10;95.60;;;14.23;46.41;102637.50;4906194;28;104097;-45
2022/01/17 03:52:09;;;;;;;38.73;26.07;;;14.20;94.80;;;14.18;47.24;102651.78;4918306;28;96943;-48
2022/01/17 03:54:35;;;;;;;44.70;28.33;;;14.10;95.20;;;14.18;47.14;102649.13;4932126;28;96893;-48
2022/01/17 03:57:01;;;;;;;43.50;27.90;;;14.10;95.20;;;14.17;47.10;102657.94;4902647;28;97592;-46
2022/01/17 03:59:27;;;;;;;42.57;27.37;;;14.10;95.40;;;14.09;47.23;102667.84;4928720;28;97257;-46
2022/01/17 04:01:53;;;;;;;41.37;27.50;;;14.00;95.70;;;14.06;47.28;102662.59;4924499;28;97218;-44
2022/01/17 04:04:19;;;;;;;42.97;27.77;;;13.90;95.90;;;13.81;47.96;102664.81;4911863;28;97129;-50
2022/01/17 04:06:45;;;;;;;45.17;29.07;;;13.70;96.20;;;13.82;47.64;102667.44;4915602;28;100511;-50
2022/01/17 04:09:11;;;;;;;43.43;27.23;;;13.70;95.60;;;13.74;48.12;102664.03;4917345;28;99811;-46
2022/01/17 04:11:38;;;;;;;46.17;29.30;;;13.50;96.80;;;13.72;48.25;102665.84;4935026;28;96938;-46
2022/01/17 04:14:09;;;;;;;40.33;27.40;;;13.50;96.80;;;13.63;49.01;102666.88;4914346;28;97090;-45
2022/01/17 04:16:35;;;;;;;41.63;27.10;;;13.40;97.10;;;13.67;48.72;102673.00;4917372;28;98186;-44
2022/01/17 04:19:02;;;;;;;41.27;28.17;;;13.40;97.00;;;13.69;48.44;102674.72;4918811;28;96984;-44
2022/01/17 04:21:33;;;;;;;41.50;27.50;;;13.50;96.70;;;13.78;48.37;102664.88;4939238;28;97109;-46
2022/01/17 04:23:59;;;;;;;41.70;27.10;;;13.60;96.40;;;13.79;48.33;102667.50;4919150;28;97391;-47
2022/01/17 04:26:26;;;;;;;42.50;27.43;;;13.60;96.50;;;13.77;48.30;102661.34;4912741;28;97102;-48
2022/01/17 04:28:52;;;;;;;42.80;27.97;;;13.60;96.20;;;13.84;48.12;102670.94;4907446;28;98501;-43
2022/01/17 04:31:18;;;;;;;39.00;27.90;;;13.70;96.00;;;13.87;47.24;102670.88;4915099;28;98408;-46
2022/01/17 04:33:44;;;;;;;44.23;27.33;;;13.70;95.50;;;13.91;47.72;102672.59;4908089;28;97677;-49
2022/01/17 04:36:10;;;;;;;38.23;26.17;;;13.70;96.30;;;13.95;47.89;102668.97;4919705;28;97401;-48
2022/01/17 04:38:37;;;;;;;39.97;26.53;;;13.80;96.10;;;14.05;47.47;102668.81;4919127;28;96942;-46
2022/01/17 04:41:12;;;;;;;43.23;27.37;;;14.00;95.60;;;14.05;47.36;102668.81;4928402;28;97231;-46
2022/01/17 04:46:09;;;;;;;38.40;24.80;;;13.90;95.80;;;14.08;47.27;102682.03;4914577;28;99132;-45
2022/01/17 04:48:37;;;;;;;34.03;23.93;;;13.90;95.90;;;14.07;47.54;102677.63;4920356;28;96603;-44
2022/01/17 04:51:04;;;;;;;37.00;25.50;;;13.90;96.00;;;14.05;47.69;102679.44;4913667;28;96827;-45
2022/01/17 04:53:31;;;;;;;39.17;24.60;;;13.90;96.00;;;14.11;47.41;102680.19;4906664;28;97057;-45
2022/01/17 04:55:58;;;;;;;37.13;24.77;;;13.90;95.60;;;14.09;47.13;102687.31;4912384;28;99688;-43
2022/01/17 04:58:24;;;;;;;37.10;26.00;;;14.00;95.50;;;14.10;47.08;102689.06;4927974;28;96707;-44
2022/01/17 05:00:50;;;;;;;35.37;25.03;;;14.00;95.20;;;13.97;47.61;102683.09;4915775;28;101229;-45
2022/01/17 05:03:20;;;;;;;33.87;23.80;;;13.80;95.60;;;13.84;47.93;102692.16;4904895;28;97111;-44
2022/01/17 05:05:47;;;;;;;33.27;22.47;;;13.70;96.10;;;13.84;47.44;102691.28;4910278;28;103208;-44
2022/01/17 05:08:14;;;;;;;34.53;23.57;;;13.70;95.70;;;13.82;47.39;102703.72;4915954;28;99303;-43
2022/01/17 05:10:42;;;;;;;34.97;24.50;;;13.70;95.40;;;13.76;48.34;102703.81;4927274;28;96795;-43
2022/01/17 05:13:10;;;;;;;35.37;24.43;;;13.50;96.30;;;13.54;48.45;102703.28;4915219;28;97403;-45
2022/01/17 05:15:44;;;;;;;32.03;22.53;;;13.20;96.50;;;13.55;48.71;102691.75;4907595;28;96995;-45
2022/01/17 05:20:37;;;;;;;35.47;23.33;;;13.30;96.90;;;13.55;48.22;102697.06;4921789;28;97399;-45
2022/01/17 05:23:03;;;;;;;34.30;22.63;;;13.40;95.90;;;13.62;48.54;102696.97;4928848;28;97502;-46
2022/01/17 05:25:29;;;;;;;37.10;23.43;;;13.40;96.50;;;13.40;48.62;102696.41;4923956;28;99435;-45
2022/01/17 05:27:55;;;;;;;34.20;23.97;;;13.30;96.40;;;13.50;48.68;102696.28;4912418;28;96888;-45
2022/01/17 05:30:23;;;;;;;34.80;25.00;;;13.30;96.70;;;13.39;49.38;102689.34;4933589;28;102171;-48
2022/01/17 05:32:51;;;;;;;36.17;23.90;;;13.20;96.80;;;13.26;49.24;102703.69;4914429;28;97241;-45
2022/01/17 05:35:19;;;;;;;39.33;24.73;;;13.00;96.60;;;13.22;49.71;102707.28;4922543;28;99015;-46
2022/01/17 05:37:47;;;;;;;32.60;23.40;;;12.90;97.30;;;13.16;49.31;102712.63;4911663;28;103464;-44
2022/01/17 05:40:14;;;;;;;36.13;24.27;;;12.80;97.30;;;13.08;49.82;102704.78;4925209;28;97211;-45
2022/01/17 05:42:41;;;;;;;35.40;23.27;;;12.70;97.60;;;12.97;50.30;102711.13;4895652;28;97044;-46
2022/01/17 05:45:09;;;;;;;36.13;23.87;;;12.70;97.90;;;13.00;50.15;102711.94;4920560;28;103914;-43
2022/01/17 05:47:35;;;;;;;35.50;24.57;;;12.70;97.80;;;13.10;49.84;102712.72;4908912;28;97453;-44
2022/01/17 05:50:03;;;;;;;36.07;22.77;;;12.80;97.70;;;13.15;49.92;102721.47;4914996;28;96891;-43
2022/01/17 05:52:30;;;;;;;33.83;24.03;;;12.80;97.90;;;13.19;49.57;102727.66;4913476;28;97192;-44
2022/01/17 05:54:57;;;;;;;36.33;23.77;;;12.90;97.70;;;13.19;49.87;102723.25;4929655;28;97672;-45
2022/01/17 05:57:24;;;;;;;34.07;23.03;;;12.80;97.70;;;13.22;49.65;102717.88;4916448;28;97269;-47
2022/01/17 05:59:50;;;;;;;34.20;22.80;;;12.80;97.90;;;13.24;49.91;102702.84;4912467;28;96887;-44
2022/01/17 06:02:16;;;;;;;35.00;22.83;;;12.80;98.20;;;13.28;49.23;102695.72;4907758;28;96932;-45
2022/01/17 06:04:41;;;;;;;34.73;23.13;;;12.90;97.50;;;13.29;49.44;102693.03;4907556;28;98734;-43
2022/01/17 06:07:07;;;;;;;37.03;21.90;;;12.90;97.80;;;13.42;49.33;102692.84;4915941;28;97324;-44
2022/01/17 06:09:34;;;;;;;35.07;23.80;;;13.10;97.60;;;13.49;48.90;102707.78;4908811;28;99307;-44
2022/01/17 06:12:01;;;;;;;34.40;22.77;;;13.20;97.30;;;13.51;48.78;102714.81;4916925;28;97068;-45
2022/01/17 06:14:27;;;;;;;19.23;13.10;;;13.20;97.20;;;13.55;48.72;102702.38;4909778;28;97763;-43
2022/01/17 06:16:53;;;;;;;34.57;23.00;;;13.20;97.50;;;13.56;48.79;102701.47;4919234;28;96878;-48
2022/01/17 06:19:19;;;;;;;32.80;23.13;;;13.20;97.40;;;13.61;48.76;102710.25;4916187;28;97691;-50
2022/01/17 06:21:45;;;;;;;28.03;19.87;;;13.20;97.30;;;13.70;48.40;102712.72;4932508;28;98008;-43
2022/01/17 06:24:11;;;;;;;35.30;21.50;;;13.40;97.20;;;13.76;48.16;102709.13;4916745;28;98041;-45
2022/01/17 06:26:41;;;;;;;31.70;21.87;;;13.50;96.70;;;13.74;47.43;102706.47;4919911;28;97423;-45
2022/01/17 06:29:10;;;;;;;32.83;22.13;;;13.40;96.30;;;13.76;48.30;102720.59;4913042;28;96879;-44
2022/01/17 06:31:36;;;;;;;30.97;20.70;;;13.40;96.90;;;13.78;47.95;102718.81;4910309;28;97471;-48
2022/01/17 06:34:03;;;;;;;31.20;21.30;;;13.40;96.70;;;13.69;47.39;102721.59;4914076;28;97292;-44
2022/01/17 06:36:30;;;;;;;29.60;20.00;;;13.30;96.30;;;13.71;48.35;102727.75;4912436;28;99535;-46
2022/01/17 06:38:56;;;;;;;30.87;21.47;;;13.30;97.20;;;13.70;48.44;102716.25;4922073;28;97143;-44
2022/01/17 06:41:23;;;;;;;33.20;22.20;;;13.30;97.00;;;13.70;48.34;102715.38;4903765;28;97567;-47
2022/01/17 06:43:49;;;;;;;31.60;21.23;;;13.30;96.60;;;13.75;47.68;102702.94;4915832;28;97245;-46
2022/01/17 06:46:16;;;;;;;32.20;20.30;;;13.40;96.60;;;13.64;47.44;102707.53;4914010;28;98422;-46
2022/01/17 06:48:43;;;;;;;33.77;21.67;;;13.40;95.90;;;13.55;48.14;102700.59;4910634;28;97000;-45
2022/01/17 06:51:09;;;;;;;27.67;17.17;;;13.20;96.50;;;13.60;48.46;102708.50;4913627;28;97509;-43
2022/01/17 06:53:35;;;;;;;29.23;19.97;;;13.20;97.40;;;13.54;48.42;102692.66;4905932;28;119011;-44
2022/01/17 06:56:01;;;;;;;30.97;21.07;;;13.20;96.80;;;13.42;48.54;102687.53;4912328;28;99114;-47
2022/01/17 06:58:28;;;;;;;29.73;19.17;;;13.10;96.40;;;13.34;48.93;102691.22;4906864;28;96846;-47
2022/01/17 07:00:54;;;;;;;31.23;20.67;;;13.10;96.50;;;13.35;48.71;102702.69;4912505;28;99052;-43
2022/01/17 07:03:21;;;;;;;32.03;19.77;;;13.10;96.50;;;13.21;48.28;102718.78;4908219;28;97853;-50
2022/01/17 07:05:46;;;;;;;31.70;20.80;;;13.00;96.40;;;13.22;49.05;102728.50;4914952;28;98351;-46
2022/01/17 07:08:12;;;;;;;30.50;18.90;;;13.00;96.50;;;13.24;48.82;102737.28;4907354;28;111593;-45
2022/01/17 07:10:38;;;;;;;28.47;19.13;;;13.00;97.00;;;13.28;49.23;102738.13;4910627;28;97318;-44
2022/01/17 07:13:04;;;;;;;30.17;19.80;;;13.00;97.30;;;13.25;48.37;102762.03;4910712;28;106206;-47
2022/01/17 07:15:29;;;;;;;29.23;19.13;;;13.00;96.50;;;13.30;49.16;102771.66;4910376;28;102715;-44
2022/01/17 07:17:55;;;;;;;28.57;19.33;;;13.10;96.80;;;13.27;48.84;102757.56;4921563;28;97289;-45
2022/01/17 07:20:21;;;;;;;29.47;19.73;;;13.10;96.60;;;13.29;49.04;102740.75;4925013;28;97112;-46
2022/01/17 07:22:47;;;;;;;31.80;19.10;;;13.20;96.90;;;13.25;48.64;102728.44;4909800;28;98642;-47
2022/01/17 07:25:13;;;;;;;30.60;19.50;;;13.10;96.50;;;13.17;49.25;102717.06;4915869;28;96976;-45
2022/01/17 07:27:40;;;;;;;26.70;18.87;;;13.00;96.90;;;13.32;49.17;102702.75;4906517;28;106911;-48
2022/01/17 07:30:09;;;;;;;26.67;18.77;;;13.20;96.90;;;13.30;48.79;102694.78;4913228;28;97499;-48
2022/01/17 07:32:36;;;;;;;28.00;17.83;;;13.30;96.30;;;13.25;48.39;102678.09;4902866;28;101702;-46
2022/01/17 07:35:05;;;;;;;28.60;18.63;;;13.20;96.00;;;13.29;48.91;102677.13;4919711;28;98158;-47
2022/01/17 07:37:31;;;;;;;30.83;19.90;;;13.30;96.30;;;13.36;48.89;102694.72;4906458;28;97519;-46
2022/01/17 07:39:56;;;;;;;29.40;19.53;;;13.30;96.60;;;13.07;49.34;102702.16;4909331;28;97316;-46
2022/01/17 07:42:22;;;;;;;30.37;20.37;;;13.10;96.60;;;13.04;49.37;102712.81;4910037;28;108106;-44
2022/01/17 07:44:55;;;;;;;28.33;19.53;;;13.00;96.60;;;12.91;49.26;102711.22;4916785;28;97779;-47
2022/01/17 07:47:39;;;;;;;32.97;20.30;;;12.80;96.70;;;12.86;49.84;102707.72;4907813;28;97051;-47
2022/01/17 07:50:11;;;;;;;29.63;19.03;;;12.80;97.10;;;13.04;49.97;102712.81;4914411;28;97105;-46
2022/01/17 07:52:37;;;;;;;29.07;19.93;;;12.90;97.10;;;12.98;49.30;102712.88;4928231;28;99782;-45
2022/01/17 07:55:04;;;;;;;29.93;20.37;;;12.90;96.50;;;13.02;49.67;102709.31;4914682;28;107791;-48
2022/01/17 07:57:29;;;;;;;29.07;19.33;;;12.90;97.00;;;13.10;49.58;102713.59;4915187;28;97911;-45
2022/01/17 07:59:55;;;;;;;26.57;19.10;;;13.00;96.90;;;13.13;49.61;102725.03;4914783;28;112749;-44
2022/01/17 08:02:21;;;;;;;29.60;19.27;;;13.00;97.30;;;13.18;49.03;102716.19;4915522;28;111346;-47
2022/01/17 08:04:47;;;;;;;32.27;20.00;;;13.00;97.10;;;13.18;49.34;102726.78;4914022;28;97602;-43
2022/01/17 08:07:15;;;;;;;28.63;19.70;;;13.00;97.20;;;13.19;49.28;102733.84;4907171;28;102267;-43
2022/01/17 08:09:41;;;;;;;32.13;21.03;;;13.00;97.20;;;13.20;48.98;102740.88;4890557;28;97579;-44
2022/01/17 08:12:08;;;;;;;29.73;19.93;;;13.00;96.80;;;13.21;49.24;102745.28;4917351;28;97053;-43
2022/01/17 08:14:35;;;;;;;28.63;18.07;;;13.00;96.90;;;13.23;48.77;102756.75;4910672;28;97297;-44
2022/01/17 08:17:02;;;;;;;25.80;18.43;;;13.00;96.50;;;13.25;48.65;102754.94;4918238;28;96851;-46
2022/01/17 08:19:29;;;;;;;34.70;20.10;;;13.10;96.50;;;12.78;49.46;102764.34;4912465;28;96891;-43
2022/01/17 08:21:56;;;;;;;30.23;18.93;;;12.60;97.10;;;12.88;50.39;102764.25;4918762;28;97488;-44
2022/01/17 08:24:22;;;;;;;29.20;19.23;;;12.60;98.10;;;12.70;50.33;102758.25;4911485;28;99362;-46
2022/01/17 08:26:50;;;;;;;27.17;18.60;;;12.60;97.40;;;12.82;50.35;102763.41;4913589;28;98188;-44
2022/01/17 08:29:17;;;;;;;27.77;18.23;;;12.70;97.70;;;12.86;50.57;102766.00;4915233;28;97614;-45
2022/01/17 08:31:46;;;;;;;30.20;19.47;;;12.70;97.90;;;13.06;49.98;102771.97;4924953;28;97247;-47
2022/01/17 08:34:13;;;;;;;25.47;17.27;;;12.90;97.50;;;12.86;49.86;102782.78;4927801;28;99020;-44
2022/01/17 08:36:39;;;;;;;30.27;19.50;;;12.70;97.50;;;12.91;49.93;102775.66;4911863;28;97116;-48
2022/01/17 08:39:06;;;;;;;30.20;19.33;;;12.70;97.60;;;12.47;50.58;102768.22;4918025;28;97047;-45
2022/01/17 08:41:33;;;;;;;32.67;19.20;;;12.30;97.60;;;12.18;51.16;102771.13;4909267;28;97696;-47
2022/01/17 08:43:58;;;;;;;33.10;20.43;;;11.90;98.60;;;12.10;51.37;102775.59;4920365;28;98227;-50
2022/01/17 08:46:24;;;;;;;36.20;20.37;;;11.80;98.90;;;11.65;52.94;102774.16;4905855;28;105847;-44
2022/01/17 08:48:52;;;;;;;32.97;21.87;;;11.50;99.40;;;11.17;54.31;102771.78;4929324;28;96785;-44
2022/01/17 08:51:17;;;;;;;32.47;21.67;;;11.10;99.90;;;10.90;55.66;102770.13;4888876;28;98662;-47
2022/01/17 08:53:44;;;;;;;34.87;22.10;;;10.90;99.90;;;10.82;56.11;102778.94;4888291;28;98256;-44
2022/01/17 08:56:11;;;;;;;37.63;22.77;;;10.80;99.90;;;10.82;56.08;102778.94;4904181;28;97730;-50
2022/01/17 08:58:37;;;;;;;39.97;23.67;;;10.80;99.90;;;10.58;56.96;102785.19;4887584;28;97995;-45
2022/01/17 09:01:04;;;;;;;35.00;24.87;;;10.60;99.90;;;10.43;57.53;102792.25;4876823;28;96791;-48
2022/01/17 09:03:29;;;;;;;36.23;22.20;;;10.50;99.90;;;10.26;58.27;102799.28;4885985;28;100567;-43
2022/01/17 09:05:55;;;;;;;38.57;24.10;;;10.40;99.90;;;10.19;58.60;102797.50;4889125;28;103629;-48
2022/01/17 09:08:23;;;;;;;40.00;24.60;;;10.30;99.90;;;10.02;59.61;102800.13;4886761;28;97054;-47
2022/01/17 09:10:50;;;;;;;39.00;23.73;;;10.10;99.90;;;10.06;59.17;102804.53;4888995;28;99981;-47
2022/01/17 09:13:17;;;;;;;38.07;22.73;;;10.20;99.90;;;10.32;58.37;102799.28;4887226;28;97193;-47
2022/01/17 09:15:45;;;;;;;41.67;25.77;;;10.50;99.90;;;10.43;57.54;102810.72;4885261;28;97517;-50
2022/01/17 09:18:14;;;;;;;40.00;26.37;;;10.60;99.90;;;10.59;57.50;102808.06;4894007;28;98075;-48
2022/01/17 09:20:40;;;;;;;44.87;26.60;;;10.70;99.90;;;10.73;57.23;102815.06;4887207;28;100411;-49
2022/01/17 09:23:06;;;;;;;38.80;24.73;;;10.80;99.90;;;10.51;57.98;102815.09;4885753;28;97441;-49
2022/01/17 09:25:34;;;;;;;45.57;28.87;;;10.80;99.90;;;10.65;57.61;102802.75;4886444;28;101096;-46
2022/01/17 09:28:00;;;;;;;42.90;26.90;;;10.80;99.90;;;11.05;56.40;102781.53;4886250;28;97252;-49
2022/01/17 09:30:26;;;;;;;43.60;27.57;;;11.10;99.90;;;10.90;56.93;102783.34;4891104;28;99558;-44
2022/01/17 09:32:52;;;;;;;31.63;19.40;;;11.10;99.90;;;11.44;55.00;102776.06;4890291;28;98013;-47
2022/01/17 09:35:18;;;;;;;28.40;19.13;;;11.50;99.90;;;11.53;54.94;102775.09;4887311;28;98260;-50
2022/01/17 09:37:44;;;;;;;41.20;26.10;;;11.50;99.90;;;11.16;55.66;102790.28;4877985;28;112476;-52
2022/01/17 09:40:11;;;;;;;39.80;25.17;;;11.50;99.90;;;11.14;56.05;102803.50;4890237;28;97553;-47
2022/01/17 09:42:39;;;;;;;41.87;27.27;;;11.40;99.90;;;11.12;55.59;102809.66;4870930;28;99016;-48
2022/01/17 09:45:12;;;;;;;40.40;26.90;;;11.40;99.90;;;11.39;55.48;102830.69;4890269;28;97326;-45
2022/01/17 09:47:40;;;;;;;41.90;26.40;;;11.50;99.90;;;11.27;56.06;102851.88;4890681;28;97390;-46
2022/01/17 09:50:20;;;;;;;43.00;27.70;;;11.30;99.90;;;11.06;56.48;102857.22;4891900;28;98697;-48
2022/01/17 09:52:50;;;;;;;50.03;30.20;;;11.10;99.90;;;10.78;57.71;102852.00;4889567;28;101611;-50
2022/01/17 09:55:27;;;;;;;48.20;30.80;;;10.80;99.90;;;10.85;57.79;102864.34;4883967;28;97280;-51
2022/01/17 09:58:00;;;;;;;42.37;27.73;;;10.70;99.90;;;10.87;57.66;102857.28;4889046;28;97930;-47
2022/01/17 10:00:31;;;;;;;46.63;28.87;;;10.80;99.90;;;11.01;56.89;102844.94;4880962;28;100150;-43
2022/01/17 10:03:00;;;;;;;46.67;31.13;;;11.10;99.90;;;11.19;56.64;102858.97;4887482;28;99764;-44
2022/01/17 10:05:27;;;;;;;44.53;29.77;;;11.10;99.90;;;11.23;57.22;102863.34;4880897;28;97114;-49
2022/01/17 10:08:09;;;;;;;49.50;32.10;;;11.20;99.90;;;10.96;58.19;102835.25;4895247;28;97550;-50
2022/01/17 10:10:54;;;;;;;48.10;31.43;;;10.90;99.90;;;11.36;56.05;102841.28;4886234;28;97961;-46
2022/01/17 10:13:23;;;;;;;43.30;30.20;;;11.20;99.90;;;11.46;56.09;102843.00;4886712;28;97875;-49
2022/01/17 10:16:07;;;;;;;43.43;28.67;;;11.40;99.90;;;11.54;55.98;102838.53;4885688;28;98679;-50